createdAt,value
2018-12-09T00:02:00.791Z,7.83
2018-12-09T00:04:29.767Z,4.77
2018-12-09T00:06:58.732Z,2.73
2018-12-09T00:09:27.813Z,4.63
2018-12-09T00:11:56.804Z,4.70
2018-12-09T00:14:25.706Z,7.57
2018-12-09T00:16:54.686Z,5.50
2018-12-09T00:19:23.788Z,3.80
2018-12-09T00:21:52.768Z,5.33
2018-12-09T00:24:21.755Z,5.03
2018-12-09T00:26:50.706Z,4.67
2018-12-09T00:29:19.691Z,3.57
2018-12-09T00:31:48.681Z,1.80
2018-12-09T00:34:17.787Z,3.40
2018-12-09T00:36:47.283Z,6.60
2018-12-09T00:39:16.380Z,7.50
2018-12-09T00:41:45.381Z,4.17
2018-12-09T00:44:14.480Z,2.90
2018-12-09T00:46:43.470Z,4.23
2018-12-09T00:49:12.464Z,4.40
2018-12-09T00:51:41.375Z,3.27
2018-12-09T00:54:10.559Z,4.37
2018-12-09T00:56:39.763Z,2.03
2018-12-09T00:59:08.759Z,4.00
2018-12-09T01:01:37.767Z,6.63
2018-12-09T01:04:06.858Z,4.37
2018-12-09T01:06:35.971Z,2.80
2018-12-09T01:09:05.142Z,4.77
2018-12-09T01:11:34.136Z,3.73
2018-12-09T01:14:03.247Z,5.33
2018-12-09T01:16:32.231Z,6.00
2018-12-09T01:19:01.315Z,3.07
2018-12-09T01:21:30.676Z,2.47
2018-12-09T01:23:59.683Z,4.10
2018-12-09T01:26:29.068Z,3.63
2018-12-09T01:28:57.995Z,3.37
2018-12-09T01:31:27.209Z,3.33
2018-12-09T01:33:56.113Z,3.43
2018-12-09T01:36:25.231Z,5.30
2018-12-09T01:38:54.336Z,4.73
2018-12-09T01:41:23.319Z,3.07
2018-12-09T01:43:52.445Z,5.67
2018-12-09T01:46:21.548Z,4.83
2018-12-09T01:48:50.579Z,2.33
2018-12-09T01:51:19.667Z,5.03
2018-12-09T01:54:00.500Z,6.03
2018-12-09T01:56:29.493Z,3.90
2018-12-09T01:58:58.617Z,5.17
2018-12-09T02:01:27.724Z,8.00
2018-12-09T02:03:56.803Z,6.43
2018-12-09T02:06:25.783Z,5.83
2018-12-09T02:08:54.979Z,7.07
2018-12-09T02:11:24.187Z,7.77
2018-12-09T02:13:53.199Z,7.40
2018-12-09T02:16:23.874Z,8.33
2018-12-09T02:19:05.375Z,7.47
2018-12-09T02:21:34.471Z,7.60
2018-12-09T02:24:03.578Z,5.00
2018-12-09T02:26:33.075Z,6.93
2018-12-09T02:29:02.185Z,3.83
2018-12-09T02:31:31.157Z,5.77
2018-12-09T02:34:00.259Z,5.90
2018-12-09T02:36:29.180Z,8.20
2018-12-09T02:38:58.176Z,6.30
2018-12-09T02:41:27.177Z,6.00
2018-12-09T02:43:56.093Z,8.60
2018-12-09T02:46:25.071Z,8.07
2018-12-09T02:48:54.088Z,3.87
2018-12-09T02:51:23.489Z,4.50
2018-12-09T02:53:52.395Z,7.47
2018-12-09T02:56:21.640Z,5.83
2018-12-09T02:58:51.035Z,6.57
2018-12-09T03:01:20.059Z,6.27
2018-12-09T03:03:49.283Z,4.57
2018-12-09T03:06:18.285Z,9.97
2018-12-09T03:08:47.711Z,6.87
2018-12-09T03:11:16.896Z,8.47
2018-12-09T03:13:46.097Z,5.33
2018-12-09T03:16:15.287Z,8.60
2018-12-09T03:18:44.407Z,7.80
2018-12-09T03:21:13.425Z,7.90
2018-12-09T03:23:42.327Z,9.93
2018-12-09T03:26:11.293Z,6.23
2018-12-09T03:28:40.396Z,7.40
2018-12-09T03:31:09.597Z,6.70
2018-12-09T03:33:38.584Z,5.60
2018-12-09T03:36:07.708Z,6.67
2018-12-09T03:38:36.979Z,4.83
2018-12-09T03:41:06.287Z,7.70
2018-12-09T03:43:35.379Z,5.73
2018-12-09T03:46:04.504Z,7.47
2018-12-09T03:48:33.596Z,9.20
2018-12-09T03:51:02.735Z,6.37
2018-12-09T03:53:32.142Z,9.50
2018-12-09T03:56:01.490Z,5.40
2018-12-09T03:58:30.689Z,9.20
2018-12-09T04:00:59.806Z,6.33
2018-12-09T04:03:28.786Z,6.03
2018-12-09T04:05:57.695Z,5.93
2018-12-09T04:08:26.696Z,7.77
2018-12-09T04:10:55.832Z,6.93
2018-12-09T04:13:24.808Z,6.67
2018-12-09T04:15:54.023Z,9.87
2018-12-09T04:18:23.160Z,7.23
2018-12-09T04:20:52.257Z,8.43
2018-12-09T04:23:21.669Z,7.87
2018-12-09T04:25:50.692Z,8.17
2018-12-09T04:28:19.683Z,12.23
2018-12-09T04:30:48.816Z,6.33
2018-12-09T04:33:17.792Z,9.47
2018-12-09T04:35:46.788Z,8.33
2018-12-09T04:38:15.980Z,12.07
2018-12-09T04:40:44.996Z,10.30
2018-12-09T04:43:14.001Z,14.47
2018-12-09T04:45:43.107Z,8.13
2018-12-09T04:48:12.234Z,9.37
2018-12-09T04:50:41.205Z,8.10
2018-12-09T04:53:10.220Z,11.97
2018-12-09T04:55:39.195Z,8.57
2018-12-09T04:58:08.667Z,13.40
2018-12-09T05:00:55.336Z,12.57
2018-12-09T05:03:24.408Z,11.07
2018-12-09T05:05:53.525Z,13.83
2018-12-09T05:08:22.711Z,19.53
2018-12-09T05:10:51.812Z,13.23
2018-12-09T05:13:21.106Z,15.30
2018-12-09T05:15:50.090Z,12.47
2018-12-09T05:18:19.076Z,9.60
2018-12-09T05:20:48.533Z,16.57
2018-12-09T05:23:17.600Z,16.93
2018-12-09T05:25:46.619Z,15.93
2018-12-09T05:28:15.735Z,12.43
2018-12-09T05:30:44.736Z,12.07
2018-12-09T05:33:13.745Z,8.90
2018-12-09T05:35:42.715Z,16.97
2018-12-09T05:38:11.944Z,12.60
2018-12-09T05:40:41.355Z,11.87
2018-12-09T05:43:10.973Z,9.33
2018-12-09T05:45:40.415Z,15.77
2018-12-09T05:48:09.522Z,9.90
2018-12-09T05:50:38.647Z,9.70
2018-12-09T05:53:07.631Z,15.07
2018-12-09T05:55:36.659Z,17.77
2018-12-09T05:58:05.698Z,14.73
2018-12-09T06:00:34.695Z,14.37
2018-12-09T06:03:03.681Z,16.43
2018-12-09T06:05:32.854Z,12.43
2018-12-09T06:08:01.978Z,11.70
2018-12-09T06:10:31.007Z,12.73
2018-12-09T06:13:00.125Z,10.57
2018-12-09T06:15:29.224Z,14.07
2018-12-09T06:17:58.327Z,10.33
2018-12-09T06:20:27.394Z,12.20
2018-12-09T06:22:56.480Z,10.47
2018-12-09T06:25:25.606Z,11.73
2018-12-09T06:27:55.260Z,14.23
2018-12-09T06:30:24.240Z,8.47
2018-12-09T06:32:53.371Z,12.23
2018-12-09T06:35:22.429Z,10.23
2018-12-09T06:37:51.428Z,14.17
2018-12-09T06:40:21.043Z,12.80
2018-12-09T06:42:50.039Z,9.00
2018-12-09T06:45:19.178Z,14.13
2018-12-09T06:47:48.298Z,13.40
2018-12-09T06:50:17.555Z,7.17
2018-12-09T06:52:46.620Z,14.10
2018-12-09T06:55:15.900Z,11.93
2018-12-09T06:57:45.025Z,10.00
2018-12-09T07:00:14.184Z,14.90
2018-12-09T07:02:43.300Z,7.43
2018-12-09T07:05:12.455Z,9.80
2018-12-09T07:07:41.460Z,5.50
2018-12-09T07:10:10.622Z,8.57
2018-12-09T07:12:39.751Z,6.83
2018-12-09T07:15:09.139Z,7.37
2018-12-09T07:17:38.078Z,7.33
2018-12-09T07:20:07.132Z,7.10
2018-12-09T07:22:36.159Z,8.83
2018-12-09T07:25:05.489Z,6.17
2018-12-09T07:27:35.106Z,7.63
2018-12-09T07:30:05.740Z,4.03
2018-12-09T07:32:34.873Z,8.20
2018-12-09T07:35:04.925Z,11.83
2018-12-09T07:37:34.040Z,6.90
2018-12-09T07:40:06.583Z,7.50
2018-12-09T07:42:35.592Z,6.73
2018-12-09T07:45:04.962Z,6.33
2018-12-09T07:47:34.101Z,5.20
2018-12-09T07:50:03.916Z,4.60
2018-12-09T07:52:32.841Z,8.43
2018-12-09T07:55:01.989Z,5.03
2018-12-09T07:57:31.145Z,4.27
2018-12-09T08:00:00.218Z,4.67
2018-12-09T08:02:29.207Z,4.23
2018-12-09T08:04:58.343Z,5.83
2018-12-09T08:07:27.475Z,4.27
2018-12-09T08:09:56.663Z,6.37
2018-12-09T08:12:25.725Z,5.23
2018-12-09T08:14:54.759Z,2.70
2018-12-09T08:17:23.883Z,3.13
2018-12-09T08:19:52.884Z,3.90
2018-12-09T08:22:22.074Z,4.83
2018-12-09T08:24:51.068Z,1.83
2018-12-09T08:27:20.299Z,4.17
2018-12-09T08:29:49.401Z,5.90
2018-12-09T08:32:18.395Z,3.47
2018-12-09T08:34:47.518Z,4.17
2018-12-09T08:37:16.643Z,1.20
2018-12-09T08:39:45.852Z,1.93
2018-12-09T08:42:14.973Z,3.07
2018-12-09T08:44:44.084Z,4.47
2018-12-09T08:47:13.057Z,5.03
2018-12-09T08:49:42.030Z,2.40
2018-12-09T08:52:11.164Z,5.03
2018-12-09T08:54:40.155Z,2.47
2018-12-09T08:57:09.154Z,1.40
2018-12-09T08:59:38.128Z,1.17
2018-12-09T09:02:07.053Z,1.83
2018-12-09T09:04:36.053Z,1.47
2018-12-09T09:07:05.199Z,3.90
2018-12-09T09:09:34.495Z,1.63
2018-12-09T09:12:03.693Z,1.80
2018-12-09T09:14:32.609Z,0.93
2018-12-09T09:17:01.788Z,2.87
2018-12-09T09:19:30.906Z,2.60
2018-12-09T09:21:59.881Z,1.60
2018-12-09T09:24:29.044Z,1.27
2018-12-09T09:26:58.152Z,1.20
2018-12-09T09:29:27.225Z,2.10
2018-12-09T09:31:56.282Z,2.77
2018-12-09T09:34:25.403Z,3.47
2018-12-09T09:36:54.348Z,3.23
2018-12-09T09:39:23.400Z,2.57
2018-12-09T09:41:52.320Z,3.07
2018-12-09T09:44:21.291Z,2.33
2018-12-09T09:46:50.672Z,2.27
2018-12-09T09:49:19.665Z,4.33
2018-12-09T09:51:48.682Z,1.37
2018-12-09T09:54:17.708Z,0.50
2018-12-09T09:56:46.859Z,1.43
2018-12-09T09:59:15.903Z,4.07
2018-12-09T10:01:45.013Z,2.00
2018-12-09T10:04:14.036Z,2.07
2018-12-09T10:06:43.039Z,1.07
2018-12-09T10:09:12.184Z,1.80
2018-12-09T10:11:41.173Z,2.30
2018-12-09T10:14:10.188Z,3.27
2018-12-09T10:16:39.381Z,4.27
2018-12-09T10:19:08.604Z,1.57
2018-12-09T10:21:37.603Z,0.60
2018-12-09T10:24:06.632Z,2.27
2018-12-09T10:26:36.606Z,0.83
2018-12-09T10:29:05.948Z,1.67
2018-12-09T10:31:35.063Z,3.23
2018-12-09T10:34:04.114Z,1.90
2018-12-09T10:36:33.277Z,0.97
2018-12-09T10:39:02.301Z,4.47
2018-12-09T10:41:31.480Z,1.70
2018-12-09T10:44:00.534Z,0.53
2018-12-09T10:46:29.648Z,1.10
2018-12-09T10:48:58.583Z,1.47
2018-12-09T10:51:27.587Z,0.50
2018-12-09T10:53:56.678Z,0.73
2018-12-09T10:56:25.680Z,0.43
2018-12-09T10:58:54.752Z,1.13
2018-12-09T11:01:29.219Z,0.60
2018-12-09T11:04:05.892Z,1.00
2018-12-09T11:06:35.023Z,1.73
2018-12-09T11:09:05.678Z,0.67
2018-12-09T11:11:34.851Z,0.93
2018-12-09T11:14:03.851Z,1.47
2018-12-09T11:16:32.907Z,1.67
2018-12-09T11:19:01.951Z,0.97
2018-12-09T11:21:31.119Z,1.10
2018-12-09T11:24:00.212Z,0.70
2018-12-09T11:26:29.361Z,4.10
2018-12-09T11:28:58.628Z,0.50
2018-12-09T11:31:27.825Z,0.87
2018-12-09T11:33:56.877Z,2.83
2018-12-09T11:36:26.089Z,1.50
2018-12-09T11:38:55.314Z,2.27
2018-12-09T11:41:24.346Z,1.97
2018-12-09T11:43:53.461Z,1.27
2018-12-09T11:46:22.525Z,1.93
2018-12-09T11:48:51.517Z,1.33
2018-12-09T11:51:20.728Z,1.43
2018-12-09T11:53:49.700Z,1.57
2018-12-09T11:56:18.756Z,1.13
2018-12-09T11:58:47.852Z,0.73
2018-12-09T12:01:16.773Z,1.80
2018-12-09T12:03:45.755Z,2.33
2018-12-09T12:06:14.683Z,2.90
2018-12-09T12:08:43.732Z,2.73
2018-12-09T12:11:12.669Z,1.23
2018-12-09T12:13:41.788Z,2.30
2018-12-09T12:16:10.920Z,2.57
2018-12-09T12:18:40.079Z,2.33
2018-12-09T12:21:09.111Z,3.07
2018-12-09T12:23:38.111Z,1.80
2018-12-09T12:26:07.442Z,2.00
2018-12-09T12:28:36.352Z,1.37
2018-12-09T12:31:05.459Z,3.87
2018-12-09T12:33:34.534Z,3.23
2018-12-09T12:36:03.503Z,0.87
2018-12-09T12:38:32.519Z,1.63
2018-12-09T12:41:01.495Z,2.30
2018-12-09T12:46:06.229Z,1.47
2018-12-09T12:48:35.220Z,1.27
2018-12-09T12:51:04.386Z,1.10
2018-12-09T12:53:33.551Z,1.90
2018-12-09T12:56:02.558Z,2.90
2018-12-09T12:58:31.577Z,2.80
2018-12-09T13:01:00.508Z,1.10
2018-12-09T13:03:29.835Z,1.07
2018-12-09T13:05:59.087Z,2.80
2018-12-09T13:08:28.267Z,1.73
2018-12-09T13:10:57.284Z,4.37
2018-12-09T13:13:26.402Z,1.87
2018-12-09T13:15:55.347Z,2.70
2018-12-09T13:18:24.386Z,1.90
2018-12-09T13:20:53.433Z,1.63
2018-12-09T13:23:22.476Z,2.03
2018-12-09T13:25:51.423Z,1.87
2018-12-09T13:28:20.563Z,1.63
2018-12-09T13:30:49.541Z,1.00
2018-12-09T13:33:18.787Z,2.20
2018-12-09T13:35:48.358Z,2.83
2018-12-09T13:38:17.487Z,1.17
2018-12-09T13:40:46.611Z,3.17
2018-12-09T13:43:15.802Z,1.73
2018-12-09T13:45:44.809Z,2.63
2018-12-09T13:48:14.131Z,7.43
2018-12-09T13:50:43.466Z,5.20
2018-12-09T13:53:12.711Z,5.53
2018-12-09T13:55:41.983Z,2.93
2018-12-09T13:58:11.195Z,2.23
2018-12-09T14:00:40.193Z,2.40
2018-12-09T14:03:09.101Z,1.40
2018-12-09T14:05:38.074Z,2.07
2018-12-09T14:08:07.067Z,1.50
2018-12-09T14:10:36.029Z,3.37
2018-12-09T14:13:05.136Z,2.77
2018-12-09T14:15:34.181Z,1.93
2018-12-09T14:18:03.251Z,1.90
2018-12-09T14:20:32.189Z,2.20
2018-12-09T14:23:01.318Z,3.27
2018-12-09T14:25:30.330Z,1.07
2018-12-09T14:27:59.307Z,3.00
2018-12-09T14:30:28.305Z,1.73
2018-12-09T14:32:57.299Z,1.80
2018-12-09T14:35:26.215Z,0.70
2018-12-09T14:37:55.199Z,1.33
2018-12-09T14:40:24.105Z,1.67
2018-12-09T14:42:53.108Z,0.77
2018-12-09T14:45:22.081Z,0.77
2018-12-09T14:47:51.028Z,1.13
2018-12-09T14:50:19.931Z,2.90
2018-12-09T14:52:49.811Z,1.73
2018-12-09T14:55:18.807Z,3.87
2018-12-09T14:57:47.820Z,1.47
2018-12-09T15:00:16.859Z,3.33
2018-12-09T15:02:45.927Z,0.83
2018-12-09T15:05:14.900Z,1.90
2018-12-09T15:07:43.883Z,1.53
2018-12-09T15:10:13.095Z,1.07
2018-12-09T15:12:42.200Z,1.47
2018-12-09T15:15:11.106Z,2.87
2018-12-09T15:17:40.067Z,2.97
2018-12-09T15:20:09.068Z,1.07
2018-12-09T15:22:38.172Z,1.70
2018-12-09T15:25:08.361Z,1.77
2018-12-09T15:27:37.259Z,1.50
2018-12-09T15:30:07.084Z,0.60
2018-12-09T15:32:36.199Z,1.07
2018-12-09T15:35:05.635Z,2.17
2018-12-09T15:37:34.627Z,3.40
2018-12-09T15:40:04.019Z,1.63
2018-12-09T15:42:32.999Z,2.40
2018-12-09T15:45:01.899Z,1.10
2018-12-09T15:47:30.897Z,1.30
2018-12-09T15:49:59.799Z,1.13
2018-12-09T15:52:28.782Z,3.47
2018-12-09T15:54:58.016Z,2.20
2018-12-09T15:57:27.224Z,2.03
2018-12-09T15:59:56.212Z,4.53
2018-12-09T16:02:25.184Z,1.23
2018-12-09T16:04:54.188Z,1.33
2018-12-09T16:07:23.100Z,1.83
2018-12-09T16:09:52.077Z,2.13
2018-12-09T16:12:21.037Z,0.70
2018-12-09T16:14:50.142Z,0.83
2018-12-09T16:17:19.115Z,0.80
2018-12-09T16:19:48.012Z,1.53
2018-12-09T16:22:17.444Z,1.67
2018-12-09T16:24:46.372Z,1.07
2018-12-09T16:27:15.356Z,1.27
2018-12-09T16:29:44.342Z,0.63
2018-12-09T16:32:13.476Z,1.90
2018-12-09T16:34:42.467Z,1.50
2018-12-09T16:37:11.372Z,1.43
2018-12-09T16:39:40.360Z,1.27
2018-12-09T16:42:09.347Z,2.57
2018-12-09T16:44:38.495Z,0.70
2018-12-09T16:47:07.501Z,2.60
2018-12-09T16:49:36.630Z,1.73
2018-12-09T16:52:05.659Z,1.57
2018-12-09T16:54:34.684Z,1.77
2018-12-09T16:57:03.748Z,2.20
2018-12-09T16:59:32.638Z,2.10
2018-12-09T17:02:01.571Z,1.80
2018-12-09T17:04:30.475Z,2.73
2018-12-09T17:06:59.455Z,1.23
2018-12-09T17:09:28.591Z,2.77
2018-12-09T17:11:57.696Z,1.00
2018-12-09T17:14:26.676Z,1.20
2018-12-09T17:16:55.593Z,4.97
2018-12-09T17:19:24.707Z,0.97
2018-12-09T17:21:53.714Z,1.60
2018-12-09T17:24:22.761Z,3.00
2018-12-09T17:26:51.991Z,2.60
2018-12-09T17:29:21.097Z,2.40
2018-12-09T17:31:50.265Z,4.40
2018-12-09T17:34:19.371Z,4.20
2018-12-09T17:36:48.283Z,3.63
2018-12-09T17:39:17.272Z,1.20
2018-12-09T17:41:46.391Z,1.87
2018-12-09T17:44:15.556Z,2.80
2018-12-09T17:46:44.727Z,2.47
2018-12-09T17:49:13.726Z,1.97
2018-12-09T17:51:42.668Z,3.30
2018-12-09T17:54:11.767Z,1.97
2018-12-09T17:56:40.774Z,5.37
2018-12-09T17:59:10.000Z,3.80
2018-12-09T18:01:38.979Z,2.50
2018-12-09T18:04:08.015Z,1.17
2018-12-09T18:06:37.716Z,2.33
2018-12-09T18:09:06.721Z,2.00
2018-12-09T18:11:35.659Z,0.70
2018-12-09T18:14:04.676Z,2.03
2018-12-09T18:16:33.731Z,2.20
2018-12-09T18:19:02.661Z,1.70
2018-12-09T18:21:31.563Z,1.33
2018-12-09T18:24:00.756Z,2.13
2018-12-09T18:26:29.748Z,3.57
2018-12-09T18:28:58.965Z,2.80
2018-12-09T18:31:28.081Z,3.53
2018-12-09T18:33:57.164Z,8.93
2018-12-09T18:36:26.450Z,3.77
2018-12-09T18:38:56.033Z,1.57
2018-12-09T18:41:25.179Z,3.23
2018-12-09T18:43:54.336Z,1.30
2018-12-09T18:46:23.299Z,2.33
2018-12-09T18:48:52.316Z,3.73
2018-12-09T18:51:21.305Z,3.23
2018-12-09T18:53:50.520Z,2.20
2018-12-09T18:56:19.720Z,1.80
2018-12-09T18:58:48.796Z,2.80
2018-12-09T19:01:17.960Z,1.83
2018-12-09T19:03:46.948Z,3.80
2018-12-09T19:06:16.048Z,2.10
2018-12-09T19:08:45.324Z,3.70
2018-12-09T19:11:14.297Z,1.40
2018-12-09T19:13:43.380Z,3.67
2018-12-09T19:16:12.496Z,1.63
2018-12-09T19:18:41.568Z,3.13
2018-12-09T19:21:10.666Z,3.47
2018-12-09T19:23:39.664Z,2.90
2018-12-09T19:26:08.559Z,2.10
2018-12-09T19:28:37.651Z,2.37
2018-12-09T19:31:06.567Z,1.87
2018-12-09T19:33:35.472Z,3.30
2018-12-09T19:36:04.439Z,1.97
2018-12-09T19:38:40.159Z,1.43
2018-12-09T19:41:04.505Z,6.03
2018-12-09T19:43:33.603Z,2.90
2018-12-09T19:46:02.951Z,2.37
2018-12-09T19:48:32.191Z,3.00
2018-12-09T19:51:01.148Z,2.97
2018-12-09T19:53:30.219Z,2.33
2018-12-09T19:55:59.327Z,1.60
2018-12-09T19:58:28.228Z,2.17
2018-12-09T20:00:57.139Z,3.53
2018-12-09T20:03:26.099Z,2.83
2018-12-09T20:05:55.236Z,3.00
2018-12-09T20:08:24.148Z,3.20
2018-12-09T20:10:53.052Z,5.40
2018-12-09T20:13:22.047Z,3.13
2018-12-09T20:15:51.044Z,2.43
2018-12-09T20:18:20.004Z,3.67
2018-12-09T20:20:49.114Z,3.80
2018-12-09T20:23:18.039Z,2.03
2018-12-09T20:25:47.236Z,2.00
2018-12-09T20:28:16.284Z,1.70
2018-12-09T20:30:45.345Z,3.17
2018-12-09T20:33:14.367Z,1.60
2018-12-09T20:35:43.352Z,2.60
2018-12-09T20:38:12.757Z,3.47
2018-12-09T20:40:41.831Z,1.50
2018-12-09T20:43:10.931Z,2.27
2018-12-09T20:45:39.828Z,1.33
2018-12-09T20:48:13.390Z,1.33
2018-12-09T20:50:39.837Z,2.23
2018-12-09T20:53:08.869Z,1.17
2018-12-09T20:55:37.840Z,1.00
2018-12-09T20:58:06.731Z,1.80
2018-12-09T21:00:35.707Z,1.60
2018-12-09T21:03:04.605Z,1.00
2018-12-09T21:05:33.580Z,0.70
2018-12-09T21:08:02.479Z,1.10
2018-12-09T21:10:31.375Z,2.27
2018-12-09T21:13:00.859Z,3.33
2018-12-09T21:15:30.039Z,2.77
2018-12-09T21:17:59.027Z,1.33
2018-12-09T21:20:27.991Z,1.80
2018-12-09T21:22:56.972Z,1.50
2018-12-09T21:25:25.884Z,1.03
2018-12-09T21:27:54.845Z,1.43
2018-12-09T21:30:23.755Z,2.00
2018-12-09T21:32:52.732Z,2.10
2018-12-09T21:35:21.751Z,1.40
2018-12-09T21:37:50.924Z,1.50
2018-12-09T21:40:20.130Z,2.17
2018-12-09T21:42:49.096Z,1.60
2018-12-09T21:45:18.068Z,2.23
2018-12-09T21:47:47.095Z,1.73
2018-12-09T21:50:15.991Z,1.93
2018-12-09T21:52:44.956Z,2.50
2018-12-09T21:55:13.940Z,1.83
2018-12-09T21:57:42.848Z,1.50
2018-12-09T22:00:11.745Z,1.23
2018-12-09T22:02:40.795Z,1.90
2018-12-09T22:05:09.792Z,2.43
2018-12-09T22:07:39.007Z,1.93
2018-12-09T22:10:08.064Z,3.43
2018-12-09T22:12:37.023Z,1.83
2018-12-09T22:15:06.015Z,1.13
2018-12-09T22:17:35.947Z,2.70
2018-12-09T22:20:06.094Z,1.53
2018-12-09T22:22:38.151Z,1.67
2018-12-09T22:25:07.258Z,2.33
2018-12-09T22:27:36.247Z,1.80
2018-12-09T22:30:05.240Z,3.20
2018-12-09T22:32:34.590Z,2.47
2018-12-09T22:35:04.665Z,2.07
2018-12-09T22:37:33.586Z,2.13
2018-12-09T22:40:02.480Z,2.17
2018-12-09T22:42:31.455Z,1.57
2018-12-09T22:45:00.699Z,1.70
2018-12-09T22:47:30.025Z,1.43
2018-12-09T22:49:59.253Z,1.70
2018-12-09T22:52:28.227Z,1.97
2018-12-09T22:54:57.124Z,1.80
2018-12-09T22:57:26.118Z,1.00
2018-12-09T22:59:55.115Z,1.47
2018-12-09T23:02:29.740Z,1.10
2018-12-09T23:04:58.708Z,1.50
2018-12-09T23:07:33.295Z,1.57
2018-12-09T23:10:02.354Z,1.73
2018-12-09T23:12:31.691Z,1.20
2018-12-09T23:15:00.787Z,1.17
2018-12-09T23:17:29.719Z,0.80
2018-12-09T23:19:58.700Z,0.77
2018-12-09T23:22:27.727Z,1.60
2018-12-09T23:24:56.720Z,0.70
2018-12-09T23:27:25.851Z,1.10
2018-12-09T23:29:55.536Z,0.60
2018-12-09T23:32:24.412Z,0.97
2018-12-09T23:34:53.403Z,0.40
2018-12-09T23:37:22.488Z,0.50
2018-12-09T23:39:51.396Z,0.40
2018-12-09T23:44:59.850Z,0.70
2018-12-09T23:47:28.971Z,2.00
2018-12-09T23:49:58.148Z,0.60
2018-12-09T23:52:27.658Z,0.90
2018-12-09T23:54:56.678Z,0.33
2018-12-09T23:57:26.574Z,0.40
2018-12-09T23:59:55.541Z,0.50
